Time;durP1;ratioP1;P1;durP2;ratioP2;P2;SDS_P1;SDS_P2;PMS_P1;PMS_P2;Temp;Humidity;BMP_temperature;BMP_pressure;BME280_temperature;BME280_humidity;BME280_pressure;Samples;Min_cycle;Max_cycle;Signal;HPM_P1;HPM_P2
2023/03/21 00:00:16;;;;;;;1.48;1.40;;;8.60;99.90;;;;;;4964297;28;20074;-82
2023/03/21 00:02:41;;;;;;;0.70;0.70;;;8.60;99.90;;;;;;4962128;28;20543;-82
2023/03/21 00:05:07;;;;;;;0.88;0.88;;;8.60;99.90;;;;;;4964149;28;20043;-82
2023/03/21 00:07:33;;;;;;;1.02;0.93;;;8.60;99.90;;;;;;4962330;28;20051;-83
2023/03/21 00:09:59;;;;;;;1.10;0.82;;;8.70;99.90;;;;;;4964702;28;20080;-82
2023/03/21 00:12:24;;;;;;;0.50;0.50;;;8.60;99.90;;;;;;4947646;28;20046;-82
2023/03/21 00:14:52;;;;;;;0.88;0.88;;;8.60;99.90;;;;;;4949260;28;20142;-83
2023/03/21 00:17:21;;;;;;;0.75;0.75;;;8.60;99.90;;;;;;4949503;28;20061;-82
2023/03/21 00:19:47;;;;;;;0.57;0.57;;;8.60;99.90;;;;;;4969597;28;20047;-82
2023/03/21 00:22:13;;;;;;;3.50;0.60;;;8.60;99.90;;;;;;4962099;28;20400;-81
2023/03/21 00:24:39;;;;;;;0.47;0.47;;;8.60;99.90;;;;;;4962991;28;20051;-82
2023/03/21 00:27:06;;;;;;;0.45;0.45;;;8.60;99.90;;;;;;4947855;28;20050;-82
2023/03/21 00:29:31;;;;;;;;;;;8.60;99.90;;;;;;4948734;28;20043;-82
2023/03/21 00:31:57;;;;;;;0.85;0.85;;;8.60;99.90;;;;;;4979031;28;19924;-83
2023/03/21 00:34:23;;;;;;;0.50;0.50;;;8.60;99.90;;;;;;4943017;28;20051;-82
2023/03/21 00:36:49;;;;;;;0.43;0.43;;;8.60;99.90;;;;;;4945407;28;20054;-82
2023/03/21 00:39:15;;;;;;;;;;;8.60;99.90;;;;;;4946441;28;20039;-82
2023/03/21 00:41:42;;;;;;;0.90;0.90;;;8.60;99.90;;;;;;4971554;28;20300;-84
2023/03/21 00:44:10;;;;;;;0.63;0.63;;;8.70;99.90;;;;;;4946816;28;20046;-84
2023/03/21 00:46:37;;;;;;;0.47;0.47;;;8.60;99.90;;;;;;4952359;28;20032;-84
2023/03/21 00:49:03;;;;;;;1.02;1.02;;;8.60;99.90;;;;;;4948211;28;20039;-84
2023/03/21 00:51:29;;;;;;;0.40;0.40;;;8.60;99.90;;;;;;4946254;28;20041;-83
2023/03/21 00:57:17;;;;;;;0.47;0.47;;;8.70;99.90;;;;;;4962755;28;20450;-83
2023/03/21 00:59:43;;;;;;;;;;;8.70;99.90;;;;;;4950133;28;20043;-83
2023/03/21 01:02:13;;;;;;;2.17;1.15;;;8.70;99.90;;;;;;4964094;28;19925;-82
2023/03/21 01:04:39;;;;;;;1.20;1.13;;;8.70;99.90;;;;;;4946486;28;20046;-84
2023/03/21 01:07:05;;;;;;;;;;;8.70;99.90;;;;;;4966523;28;20070;-83
2023/03/21 01:09:31;;;;;;;1.77;1.38;;;8.70;99.90;;;;;;4967919;28;19950;-84
2023/03/21 01:11:57;;;;;;;0.77;0.77;;;8.70;99.90;;;;;;4964565;28;20553;-81
2023/03/21 01:14:23;;;;;;;0.85;0.85;;;8.70;99.90;;;;;;4947301;28;20047;-82
2023/03/21 01:16:51;;;;;;;0.60;0.60;;;8.70;99.90;;;;;;4966301;28;20070;-82
2023/03/21 01:19:18;;;;;;;1.13;1.13;;;8.70;99.90;;;;;;4964320;28;20492;-82
2023/03/21 01:21:44;;;;;;;0.73;0.73;;;8.70;99.90;;;;;;4966829;28;20062;-82
2023/03/21 01:24:11;;;;;;;0.40;0.40;;;8.80;99.90;;;;;;4963206;28;20392;-82
2023/03/21 01:26:37;;;;;;;0.95;0.95;;;8.70;99.90;;;;;;4948721;28;20062;-82
2023/03/21 01:29:06;;;;;;;2.03;1.90;;;8.70;99.90;;;;;;4948951;28;20043;-83
2023/03/21 01:31:31;;;;;;;0.65;0.65;;;8.70;99.90;;;;;;4963717;28;20495;-82
2023/03/21 01:33:57;;;;;;;0.50;0.50;;;8.70;99.90;;;;;;4965764;28;20031;-83
2023/03/21 01:36:25;;;;;;;1.13;1.13;;;8.70;99.90;;;;;;4963392;28;20049;-84
2023/03/21 01:38:51;;;;;;;0.60;0.60;;;8.70;99.90;;;;;;4966374;28;20046;-84
2023/03/21 01:41:30;;;;;;;;;;;8.60;99.90;;;;;;4965505;28;20039;-84
2023/03/21 01:43:56;;;;;;;2.03;1.92;;;8.70;99.90;;;;;;4945880;28;20453;-83
2023/03/21 01:46:55;;;;;;;1.30;1.20;;;8.70;99.90;;;;;;4963031;28;20030;-83
2023/03/21 01:49:33;;;;;;;2.53;1.40;;;8.70;99.90;;;;;;4960829;28;20031;-83
2023/03/21 01:52:06;;;;;;;0.50;0.50;;;8.70;99.90;;;;;;4942168;28;20057;-82
2023/03/21 01:54:36;;;;;;;1.83;1.73;;;8.70;99.90;;;;;;4959533;28;20042;-83
2023/03/21 01:57:10;;;;;;;1.15;1.13;;;8.70;99.90;;;;;;4945313;28;20103;-83
2023/03/21 01:59:42;;;;;;;1.80;1.23;;;8.70;99.90;;;;;;4968699;28;20039;-83
2023/03/21 02:02:14;;;;;;;1.60;1.50;;;8.70;99.90;;;;;;4962133;28;20047;-83
2023/03/21 02:04:39;;;;;;;1.05;1.05;;;8.70;99.90;;;;;;4963350;28;20058;-82
2023/03/21 02:07:16;;;;;;;0.52;0.52;;;8.80;99.90;;;;;;5026025;28;20519;-83
2023/03/21 02:09:49;;;;;;;1.45;1.40;;;8.70;99.90;;;;;;4963131;28;20051;-82
2023/03/21 02:12:17;;;;;;;0.80;0.80;;;8.70;99.90;;;;;;4946860;28;20059;-81
2023/03/21 02:14:46;;;;;;;0.40;0.40;;;8.70;99.90;;;;;;5026155;28;20403;-82
2023/03/21 02:17:30;;;;;;;3.80;1.63;;;8.70;99.90;;;;;;4932696;28;20092;-81
2023/03/21 02:20:25;;;;;;;1.08;1.02;;;8.70;99.90;;;;;;4960068;28;20051;-82
2023/03/21 02:23:20;;;;;;;0.40;0.40;;;8.70;99.90;;;;;;4946792;28;20576;-82
2023/03/21 02:26:19;;;;;;;4.60;1.35;;;8.80;99.90;;;;;;4983673;28;20056;-82
2023/03/21 02:28:56;;;;;;;0.40;0.40;;;8.70;99.90;;;;;;4950156;28;20126;-82
2023/03/21 02:31:40;;;;;;;0.75;0.75;;;8.70;99.90;;;;;;4944286;28;20041;-81
2023/03/21 02:34:17;;;;;;;3.65;1.20;;;8.70;99.90;;;;;;4962160;28;20496;-81
2023/03/21 02:37:05;;;;;;;3.15;0.65;;;8.70;99.90;;;;;;4962302;28;20049;-83
2023/03/21 02:39:39;;;;;;;0.75;0.75;;;8.70;99.90;;;;;;4961670;28;20149;-82
2023/03/21 02:42:15;;;;;;;1.38;0.93;;;8.80;99.90;;;;;;4957565;28;20043;-82
2023/03/21 02:45:19;;;;;;;0.47;0.47;;;8.70;99.90;;;;;;4944257;28;20107;-83
2023/03/21 02:48:04;;;;;;;1.33;1.23;;;8.70;99.90;;;;;;4921179;28;20554;-83
2023/03/21 02:50:36;;;;;;;1.25;1.05;;;8.70;99.90;;;;;;4963402;28;20047;-84
2023/03/21 02:53:05;;;;;;;0.80;0.80;;;8.80;99.90;;;;;;4963723;28;20054;-83
2023/03/21 02:55:33;;;;;;;0.50;0.50;;;8.80;99.90;;;;;;4961667;28;20078;-83
2023/03/21 02:58:00;;;;;;;0.98;0.98;;;8.80;99.90;;;;;;4964499;28;20135;-84
2023/03/21 03:00:29;;;;;;;1.08;1.02;;;8.80;99.90;;;;;;4950042;28;20047;-83
2023/03/21 03:02:55;;;;;;;3.80;1.20;;;8.80;99.90;;;;;;4966170;28;20485;-83
2023/03/21 03:05:29;;;;;;;0.60;0.60;;;8.80;99.90;;;;;;4951637;28;20100;-82
2023/03/21 03:08:13;;;;;;;0.68;0.68;;;8.80;99.90;;;;;;4965146;28;20151;-83
2023/03/21 03:10:54;;;;;;;0.63;0.63;;;8.80;99.90;;;;;;4962068;28;20586;-83
2023/03/21 03:13:25;;;;;;;0.80;0.80;;;8.80;99.90;;;;;;4958773;28;20130;-82
2023/03/21 03:16:29;;;;;;;1.05;1.05;;;8.80;99.90;;;;;;4964345;28;20047;-82
2023/03/21 03:18:58;;;;;;;0.93;0.93;;;8.80;99.90;;;;;;4957018;28;20074;-82
2023/03/21 03:21:36;;;;;;;0.55;0.55;;;8.90;99.90;;;;;;4975263;28;20043;-82
2023/03/21 03:24:02;;;;;;;0.50;0.50;;;8.80;99.90;;;;;;4945479;28;20101;-82
2023/03/21 03:26:46;;;;;;;1.05;1.05;;;8.80;99.90;;;;;;4964565;28;20062;-82
2023/03/21 03:29:18;;;;;;;0.60;0.60;;;8.80;99.90;;;;;;4948147;28;20049;-83
2023/03/21 03:32:00;;;;;;;1.25;1.25;;;8.80;99.90;;;;;;4962450;28;20043;-83
2023/03/21 03:34:33;;;;;;;0.70;0.70;;;8.80;99.90;;;;;;4961947;28;20069;-82
2023/03/21 03:37:03;;;;;;;1.55;1.45;;;8.80;99.90;;;;;;4966102;28;20585;-82
2023/03/21 03:39:51;;;;;;;1.05;1.05;;;8.90;99.90;;;;;;4949127;28;20055;-82
2023/03/21 03:42:27;;;;;;;1.15;1.08;;;8.80;99.90;;;;;;4968960;28;20038;-83
2023/03/21 03:44:54;;;;;;;1.08;0.98;;;8.90;99.90;;;;;;4951377;28;20445;-83
2023/03/21 03:47:33;;;;;;;0.90;0.90;;;8.80;99.90;;;;;;4962354;28;20118;-84
2023/03/21 03:50:16;;;;;;;0.95;0.60;;;8.90;99.90;;;;;;4966159;28;20043;-83
2023/03/21 03:52:48;;;;;;;0.80;0.80;;;8.90;99.90;;;;;;4968125;28;20050;-83
2023/03/21 03:55:17;;;;;;;0.90;0.90;;;8.90;99.90;;;;;;4965730;28;20044;-82
2023/03/21 03:57:44;;;;;;;0.82;0.82;;;8.90;99.90;;;;;;4961516;28;20097;-82
2023/03/21 04:00:12;;;;;;;0.50;0.50;;;8.90;99.90;;;;;;4956288;28;20093;-83
2023/03/21 04:02:38;;;;;;;0.82;0.82;;;8.90;99.90;;;;;;4963645;28;20392;-83
2023/03/21 04:05:04;;;;;;;0.55;0.55;;;8.90;99.90;;;;;;4963262;28;20043;-83
2023/03/21 04:07:31;;;;;;;1.75;0.82;;;8.90;99.90;;;;;;4948625;28;20092;-84
2023/03/21 04:09:56;;;;;;;0.40;0.40;;;8.90;99.90;;;;;;4963790;28;20378;-84
2023/03/21 04:12:24;;;;;;;1.02;1.02;;;8.90;99.90;;;;;;4932590;28;20061;-83
2023/03/21 04:14:50;;;;;;;2.08;1.95;;;8.90;99.90;;;;;;4966062;28;20058;-83
2023/03/21 04:17:17;;;;;;;3.40;1.42;;;8.90;99.90;;;;;;4943674;28;20055;-83
2023/03/21 04:19:45;;;;;;;0.52;0.52;;;8.90;99.90;;;;;;4962807;28;20055;-82
2023/03/21 04:22:11;;;;;;;0.65;0.65;;;8.90;99.90;;;;;;4963413;28;20057;-83
2023/03/21 04:24:38;;;;;;;0.55;0.55;;;8.90;99.90;;;;;;4950595;28;20468;-82
2023/03/21 04:27:04;;;;;;;0.82;0.82;;;8.90;99.90;;;;;;4965275;28;20027;-82
2023/03/21 04:29:31;;;;;;;5.30;1.23;;;8.90;99.90;;;;;;4960542;28;20615;-82
2023/03/21 04:31:57;;;;;;;1.48;1.27;;;8.90;99.90;;;;;;4967384;28;20488;-82
2023/03/21 04:34:26;;;;;;;0.60;0.60;;;8.90;99.90;;;;;;4964559;28;20085;-82
2023/03/21 04:36:53;;;;;;;1.10;1.08;;;8.90;99.90;;;;;;4972262;28;20389;-82
2023/03/21 04:39:20;;;;;;;1.08;1.08;;;8.90;99.90;;;;;;4966282;28;20173;-82
2023/03/21 04:41:47;;;;;;;0.85;0.85;;;8.90;99.90;;;;;;4961462;28;20488;-82
2023/03/21 04:44:15;;;;;;;1.48;1.40;;;8.90;99.90;;;;;;4960147;28;20050;-82
2023/03/21 04:46:42;;;;;;;1.13;0.93;;;8.90;99.90;;;;;;4966770;28;20055;-81
2023/03/21 04:49:08;;;;;;;1.48;1.38;;;8.90;99.90;;;;;;4968091;28;20039;-82
2023/03/21 04:51:34;;;;;;;0.70;0.70;;;8.90;99.90;;;;;;4962658;28;20091;-82
2023/03/21 04:54:00;;;;;;;1.63;1.55;;;9.00;99.90;;;;;;4964459;28;20089;-83
2023/03/21 04:56:31;;;;;;;0.52;0.52;;;8.90;99.90;;;;;;4945448;28;20523;-82
2023/03/21 04:58:58;;;;;;;1.23;1.13;;;8.90;99.90;;;;;;4968319;28;20180;-81
2023/03/21 05:01:24;;;;;;;2.30;0.85;;;8.90;99.90;;;;;;4962039;28;20053;-82
2023/03/21 05:03:51;;;;;;;0.50;0.50;;;8.90;99.90;;;;;;4965281;28;20125;-82
2023/03/21 05:06:18;;;;;;;0.52;0.52;;;8.90;99.90;;;;;;4963534;28;20046;-81
2023/03/21 05:08:43;;;;;;;0.40;0.40;;;8.90;99.90;;;;;;4966190;28;20547;-81
2023/03/21 05:11:15;;;;;;;0.85;0.52;;;8.90;99.90;;;;;;4963218;28;20495;-82
2023/03/21 05:13:40;;;;;;;1.40;1.35;;;8.90;99.90;;;;;;4962519;28;20043;-82
2023/03/21 05:16:07;;;;;;;0.60;0.60;;;8.90;99.90;;;;;;4962685;28;20427;-82
2023/03/21 05:18:33;;;;;;;0.60;0.60;;;8.90;99.90;;;;;;4962888;28;20090;-82
2023/03/21 05:20:59;;;;;;;0.75;0.75;;;9.00;99.90;;;;;;4963235;28;20460;-83
2023/03/21 05:23:30;;;;;;;0.32;0.32;;;8.90;99.90;;;;;;4947790;28;20058;-83
2023/03/21 05:25:56;;;;;;;1.08;1.08;;;8.90;99.90;;;;;;5024752;28;20055;-82
2023/03/21 05:28:22;;;;;;;0.80;0.80;;;8.90;99.90;;;;;;4960534;28;20050;-83
2023/03/21 05:30:47;;;;;;;1.38;1.38;;;8.90;99.90;;;;;;4931495;28;20039;-83
2023/03/21 05:33:13;;;;;;;1.20;1.20;;;8.90;99.90;;;;;;4944368;28;20101;-83
2023/03/21 05:35:39;;;;;;;0.60;0.60;;;8.90;99.90;;;;;;4945139;28;20116;-82
2023/03/21 05:38:05;;;;;;;0.98;0.98;;;9.00;99.90;;;;;;4962885;28;20066;-82
2023/03/21 05:40:31;;;;;;;0.52;0.52;;;8.90;99.90;;;;;;4961394;28;20047;-83
2023/03/21 05:42:56;;;;;;;3.97;1.45;;;8.90;99.90;;;;;;4962483;28;20061;-82
2023/03/21 05:45:22;;;;;;;0.47;0.47;;;8.90;99.90;;;;;;4962970;28;20047;-83
2023/03/21 05:47:47;;;;;;;0.38;0.38;;;8.90;99.90;;;;;;4951559;28;20467;-83
2023/03/21 05:50:13;;;;;;;0.40;0.40;;;8.90;99.90;;;;;;4964018;28;20051;-83
2023/03/21 05:52:39;;;;;;;0.40;0.40;;;8.90;99.90;;;;;;4961503;28;21170;-83
2023/03/21 05:55:06;;;;;;;0.98;0.80;;;8.90;99.90;;;;;;4956133;28;20046;-84
2023/03/21 05:57:33;;;;;;;0.40;0.40;;;8.90;99.90;;;;;;4944355;28;20592;-82
2023/03/21 06:00:00;;;;;;;0.47;0.47;;;8.90;99.90;;;;;;4962137;28;20082;-81
2023/03/21 06:02:26;;;;;;;0.70;0.70;;;8.90;99.90;;;;;;4949687;28;20039;-82
2023/03/21 06:04:52;;;;;;;4.47;0.77;;;8.90;99.90;;;;;;4963054;28;20047;-82
2023/03/21 06:07:20;;;;;;;0.57;0.57;;;9.00;99.90;;;;;;4973776;28;20049;-82
2023/03/21 06:09:46;;;;;;;0.57;0.57;;;8.90;99.90;;;;;;4969234;28;20380;-82
2023/03/21 06:12:13;;;;;;;0.50;0.50;;;8.90;99.90;;;;;;4963353;28;20058;-81
2023/03/21 06:14:39;;;;;;;0.60;0.60;;;9.00;99.90;;;;;;4960941;28;20086;-82
2023/03/21 06:17:04;;;;;;;0.50;0.50;;;9.00;99.90;;;;;;4960775;28;20082;-82
2023/03/21 06:19:30;;;;;;;0.60;0.60;;;9.00;99.90;;;;;;4974900;28;20047;-82
2023/03/21 06:21:56;;;;;;;1.30;1.20;;;9.00;99.90;;;;;;4962289;28;20043;-82
2023/03/21 06:24:22;;;;;;;0.50;0.50;;;9.00;99.90;;;;;;4957641;28;20138;-83
2023/03/21 06:26:47;;;;;;;1.30;1.20;;;9.10;99.90;;;;;;4960851;28;20051;-82
2023/03/21 06:29:13;;;;;;;0.40;0.40;;;9.00;99.90;;;;;;4959784;28;20481;-83
2023/03/21 06:31:39;;;;;;;0.28;0.28;;;9.10;99.90;;;;;;4972298;28;20050;-83
2023/03/21 06:34:05;;;;;;;0.40;0.40;;;9.10;99.90;;;;;;4945590;28;20548;-83
2023/03/21 06:36:31;;;;;;;0.93;0.60;;;9.10;99.90;;;;;;4946205;28;20046;-82
2023/03/21 06:38:56;;;;;;;0.50;0.50;;;9.10;99.90;;;;;;4956394;28;20122;-82
2023/03/21 06:41:22;;;;;;;1.10;0.73;;;9.10;99.90;;;;;;4962017;28;20050;-82
2023/03/21 06:43:48;;;;;;;0.68;0.68;;;9.10;99.90;;;;;;4961413;28;20517;-83
2023/03/21 06:46:13;;;;;;;0.70;0.70;;;9.10;99.90;;;;;;4958994;28;20051;-82
2023/03/21 06:48:43;;;;;;;0.73;0.73;;;9.20;99.90;;;;;;4954883;28;20113;-83
2023/03/21 06:51:10;;;;;;;0.40;0.40;;;9.20;99.90;;;;;;4965998;28;20441;-82
2023/03/21 06:53:36;;;;;;;0.90;0.90;;;9.20;99.90;;;;;;4958882;28;20088;-83
2023/03/21 06:56:02;;;;;;;0.43;0.43;;;9.20;99.90;;;;;;4959874;28;20043;-83
2023/03/21 06:58:28;;;;;;;0.50;0.50;;;9.20;99.90;;;;;;4949910;28;20441;-83
2023/03/21 07:00:53;;;;;;;0.80;0.80;;;9.20;99.90;;;;;;4966898;28;20559;-83
2023/03/21 07:03:19;;;;;;;0.55;0.55;;;9.20;99.90;;;;;;4980362;28;20154;-83
2023/03/21 07:05:45;;;;;;;0.40;0.40;;;9.20;99.90;;;;;;4948451;28;20051;-83
2023/03/21 07:08:12;;;;;;;;;;;9.30;99.90;;;;;;4967167;28;20046;-83
2023/03/21 07:10:41;;;;;;;0.60;0.60;;;9.20;99.90;;;;;;4955163;28;19918;-84
2023/03/21 07:13:07;;;;;;;0.93;0.93;;;9.30;99.90;;;;;;4974103;28;20035;-84
2023/03/21 07:15:36;;;;;;;0.82;0.82;;;9.40;99.90;;;;;;4968280;28;20042;-84
2023/03/21 07:18:03;;;;;;;0.70;0.70;;;9.40;99.90;;;;;;4951904;28;20089;-84
2023/03/21 07:20:29;;;;;;;0.55;0.55;;;9.40;99.90;;;;;;4955690;28;20076;-84
2023/03/21 07:22:56;;;;;;;0.40;0.40;;;9.40;99.90;;;;;;4964647;28;20503;-84
2023/03/21 07:25:21;;;;;;;;;;;9.40;99.90;;;;;;4969351;28;20071;-84
2023/03/21 07:27:47;;;;;;;0.57;0.57;;;9.40;99.90;;;;;;4953183;28;19946;-83
2023/03/21 07:30:14;;;;;;;0.73;0.73;;;9.50;99.90;;;;;;4969047;28;20557;-84
2023/03/21 07:32:39;;;;;;;0.90;0.90;;;9.50;99.90;;;;;;4968228;28;20055;-83
2023/03/21 07:35:11;;;;;;;1.40;1.35;;;9.50;99.90;;;;;;4966042;28;20088;-83
2023/03/21 07:37:38;;;;;;;1.27;1.10;;;9.50;99.90;;;;;;4988874;28;20404;-84
2023/03/21 07:40:09;;;;;;;;;;;9.50;99.90;;;;;;4964611;28;20061;-84
2023/03/21 07:42:39;;;;;;;0.93;0.93;;;9.50;99.90;;;;;;4963711;28;19922;-83
2023/03/21 07:45:06;;;;;;;1.13;1.10;;;9.50;99.90;;;;;;4961961;28;20066;-82
2023/03/21 07:47:32;;;;;;;0.80;0.80;;;9.50;99.90;;;;;;4970548;28;20049;-84
2023/03/21 07:49:58;;;;;;;0.80;0.65;;;9.50;99.90;;;;;;5013549;28;20127;-84
2023/03/21 07:52:24;;;;;;;1.45;0.85;;;9.50;99.90;;;;;;4968670;28;20168;-86
2023/03/21 07:54:50;;;;;;;0.68;0.68;;;9.60;99.90;;;;;;4965036;28;20051;-87
2023/03/21 07:57:16;;;;;;;1.30;1.27;;;9.60;99.90;;;;;;4963848;28;20105;-85
2023/03/21 07:59:42;;;;;;;0.85;0.85;;;9.60;99.90;;;;;;4968772;28;20062;-88
2023/03/21 08:02:13;;;;;;;0.60;0.60;;;9.60;99.90;;;;;;4955699;28;20417;-87
2023/03/21 08:04:39;;;;;;;0.80;0.80;;;9.60;99.90;;;;;;4968473;28;20322;-86
2023/03/21 08:07:05;;;;;;;0.55;0.55;;;9.60;99.90;;;;;;4962331;28;20180;-83
2023/03/21 08:09:31;;;;;;;0.47;0.47;;;9.60;99.90;;;;;;4964049;28;20054;-83
2023/03/21 08:11:57;;;;;;;0.60;0.60;;;9.70;99.90;;;;;;4966214;28;20046;-83
2023/03/21 08:14:23;;;;;;;0.50;0.50;;;9.60;99.90;;;;;;4942938;28;20043;-83
2023/03/21 08:16:48;;;;;;;1.42;1.08;;;9.70;99.90;;;;;;4962556;28;20063;-84
2023/03/21 08:19:14;;;;;;;0.65;0.65;;;9.70;99.90;;;;;;4949329;28;20550;-84
2023/03/21 08:21:41;;;;;;;0.57;0.57;;;9.70;99.90;;;;;;4971399;28;20072;-84
2023/03/21 08:24:07;;;;;;;;;;;9.70;99.90;;;;;;4970243;28;20125;-83
2023/03/21 08:26:33;;;;;;;0.55;0.55;;;9.80;99.90;;;;;;4961507;28;20004;-83
2023/03/21 08:28:59;;;;;;;0.60;0.60;;;9.80;99.90;;;;;;4950119;28;20046;-83
2023/03/21 08:31:25;;;;;;;0.47;0.47;;;9.80;99.90;;;;;;4966263;28;20070;-84
2023/03/21 08:33:53;;;;;;;4.22;1.33;;;9.80;99.90;;;;;;4935356;28;20195;-84
2023/03/21 08:36:20;;;;;;;0.63;0.63;;;9.80;99.90;;;;;;4949100;28;20491;-84
2023/03/21 08:38:47;;;;;;;1.25;0.93;;;9.80;99.90;;;;;;4948415;28;20057;-85
2023/03/21 08:41:14;;;;;;;0.45;0.30;;;9.80;99.90;;;;;;4963448;28;20130;-85
2023/03/21 08:43:39;;;;;;;0.75;0.75;;;9.80;99.90;;;;;;4974019;28;20047;-86
2023/03/21 08:46:06;;;;;;;0.77;0.77;;;9.80;99.90;;;;;;4967362;28;20047;-85
2023/03/21 08:48:37;;;;;;;0.47;0.47;;;9.70;99.90;;;;;;4966778;28;20139;-86
2023/03/21 08:51:04;;;;;;;0.52;0.52;;;9.70;99.90;;;;;;4962395;28;20035;-88
2023/03/21 08:53:30;;;;;;;0.50;0.50;;;9.70;99.90;;;;;;4967948;28;20046;-86
2023/03/21 08:55:55;;;;;;;0.50;0.50;;;9.70;99.90;;;;;;4965058;28;20043;-85
2023/03/21 08:58:21;;;;;;;0.70;0.70;;;9.70;99.90;;;;;;4959798;28;20059;-86
2023/03/21 09:00:47;;;;;;;0.40;0.40;;;9.70;99.90;;;;;;4967633;28;20432;-86
2023/03/21 09:03:12;;;;;;;0.32;0.32;;;9.70;99.90;;;;;;4964279;28;20111;-86
2023/03/21 09:05:38;;;;;;;0.57;0.57;;;9.70;99.90;;;;;;4966643;28;20561;-85
2023/03/21 09:08:04;;;;;;;0.50;0.50;;;9.70;99.90;;;;;;4950413;28;20045;-85
2023/03/21 09:10:30;;;;;;;1.75;0.65;;;9.70;99.90;;;;;;4967733;28;20074;-85
2023/03/21 09:12:56;;;;;;;0.40;0.40;;;9.70;99.90;;;;;;4966957;28;20480;-85
2023/03/21 09:15:27;;;;;;;0.52;0.52;;;9.70;99.90;;;;;;4966548;28;20049;-85
2023/03/21 09:18:11;;;;;;;0.40;0.40;;;9.70;99.90;;;;;;4965636;28;20050;-85
2023/03/21 09:20:38;;;;;;;0.75;0.70;;;9.80;99.90;;;;;;4974441;28;20138;-86
2023/03/21 09:23:04;;;;;;;0.40;0.40;;;9.80;99.90;;;;;;4961568;28;20081;-85
2023/03/21 09:25:31;;;;;;;0.70;0.70;;;9.80;99.90;;;;;;4965827;28;20086;-85
2023/03/21 09:27:58;;;;;;;0.40;0.40;;;9.80;99.90;;;;;;4969396;28;20101;-86
2023/03/21 09:30:24;;;;;;;1.83;1.42;;;9.80;99.90;;;;;;4964757;28;20093;-86
2023/03/21 09:32:52;;;;;;;0.50;0.50;;;9.80;99.90;;;;;;4965437;28;20050;-86
2023/03/21 09:35:19;;;;;;;0.75;0.50;;;9.80;99.90;;;;;;4967041;28;20053;-86
2023/03/21 09:37:47;;;;;;;0.40;0.40;;;9.80;99.90;;;;;;4970069;28;20042;-87
2023/03/21 09:40:28;;;;;;;0.40;0.40;;;9.80;99.90;;;;;;4968299;28;20054;-87
2023/03/21 09:42:54;;;;;;;0.60;0.60;;;9.80;99.90;;;;;;4953372;28;20399;-87
2023/03/21 09:45:40;;;;;;;;;;;9.90;99.90;;;;;;4980357;28;20043;-86
2023/03/21 09:48:18;;;;;;;0.70;0.70;;;9.90;99.90;;;;;;4968903;28;19930;-88
2023/03/21 09:50:45;;;;;;;0.50;0.50;;;10.00;99.90;;;;;;4960559;28;20059;-87
2023/03/21 09:53:19;;;;;;;0.68;0.68;;;10.00;99.90;;;;;;4966975;28;20066;-87
2023/03/21 09:55:46;;;;;;;0.60;0.60;;;10.00;99.90;;;;;;4962559;28;20043;-88
2023/03/21 09:58:24;;;;;;;0.65;0.65;;;10.00;99.90;;;;;;4946445;28;20051;-86
2023/03/21 10:00:56;;;;;;;1.08;1.08;;;9.90;99.90;;;;;;4965147;28;20090;-87
2023/03/21 10:03:29;;;;;;;0.45;0.45;;;9.90;99.90;;;;;;4969576;28;20111;-87
2023/03/21 10:05:59;;;;;;;0.50;0.50;;;9.90;99.90;;;;;;4970021;28;20490;-87
2023/03/21 10:08:35;;;;;;;1.45;1.35;;;9.80;99.90;;;;;;4969045;28;20035;-86
2023/03/21 10:11:30;;;;;;;0.68;0.68;;;9.90;99.90;;;;;;4966153;28;20439;-87
2023/03/21 10:14:05;;;;;;;1.15;1.10;;;9.80;99.90;;;;;;4971742;28;20053;-87
2023/03/21 10:16:40;;;;;;;0.85;0.85;;;9.80;99.90;;;;;;4966729;28;20126;-87
2023/03/21 10:19:15;;;;;;;1.00;0.50;;;9.90;99.90;;;;;;4961064;28;20454;-86
2023/03/21 10:21:45;;;;;;;0.40;0.40;;;9.90;99.90;;;;;;4953856;28;20043;-87
2023/03/21 10:24:20;;;;;;;0.95;0.93;;;9.90;99.90;;;;;;4957865;28;20035;-88
2023/03/21 10:26:48;;;;;;;0.60;0.60;;;9.90;99.90;;;;;;4964225;28;20051;-86
2023/03/21 10:29:16;;;;;;;0.70;0.70;;;9.90;99.90;;;;;;4959030;28;20140;-86
2023/03/21 10:31:43;;;;;;;2.70;2.50;;;9.90;99.90;;;;;;4951256;28;20491;-87
2023/03/21 10:34:36;;;;;;;1.27;1.27;;;9.90;99.90;;;;;;4964051;28;20766;-88
2023/03/21 10:37:03;;;;;;;1.00;0.90;;;9.90;99.90;;;;;;4949761;28;20055;-88
2023/03/21 10:39:42;;;;;;;2.17;0.73;;;9.90;99.90;;;;;;4964340;28;20088;-88
2023/03/21 10:42:23;;;;;;;0.47;0.47;;;10.00;99.90;;;;;;4945982;28;20145;-87
2023/03/21 10:44:53;;;;;;;1.95;1.77;;;10.00;99.90;;;;;;4949339;28;20043;-88
2023/03/21 10:47:39;;;;;;;0.70;0.65;;;10.10;99.90;;;;;;4965618;28;20041;-87
2023/03/21 10:50:08;;;;;;;2.78;2.15;;;10.10;99.90;;;;;;4959750;28;20067;-87
2023/03/21 10:52:34;;;;;;;0.73;0.65;;;10.20;99.90;;;;;;4968906;28;20142;-87
2023/03/21 10:55:06;;;;;;;0.50;0.50;;;10.20;99.90;;;;;;4965367;28;20404;-86
2023/03/21 10:57:32;;;;;;;0.52;0.52;;;10.40;99.90;;;;;;4961108;28;20167;-86
2023/03/21 11:00:01;;;;;;;0.50;0.50;;;10.40;99.90;;;;;;5032504;28;20046;-86
2023/03/21 11:02:35;;;;;;;0.30;0.30;;;10.50;99.90;;;;;;4967558;28;20088;-87
2023/03/21 11:05:17;;;;;;;1.05;1.05;;;10.50;99.90;;;;;;4950230;28;20050;-84
2023/03/21 11:07:43;;;;;;;0.73;0.73;;;10.50;99.90;;;;;;4966723;28;20051;-87
2023/03/21 11:10:36;;;;;;;1.85;0.82;;;10.60;99.90;;;;;;4969305;28;20074;-87
2023/03/21 11:13:15;;;;;;;1.75;1.65;;;10.70;99.90;;;;;;4960852;28;20050;-86
2023/03/21 11:15:52;;;;;;;1.35;1.25;;;10.80;99.90;;;;;;4967667;28;20043;-85
2023/03/21 11:18:24;;;;;;;0.88;0.88;;;10.80;99.90;;;;;;4966892;28;20536;-87
2023/03/21 11:20:57;;;;;;;1.02;0.95;;;11.00;99.90;;;;;;4965859;28;20058;-89
2023/03/21 11:23:29;;;;;;;1.17;0.80;;;11.10;99.90;;;;;;4972144;28;20095;-86
2023/03/21 11:25:57;;;;;;;1.27;1.23;;;11.20;99.90;;;;;;4963503;28;20052;-87
2023/03/21 11:28:27;;;;;;;0.47;0.47;;;11.20;99.90;;;;;;4967248;28;20112;-88
2023/03/21 11:30:58;;;;;;;2.75;2.55;;;11.30;99.90;;;;;;4962688;28;20061;-87
2023/03/21 11:33:35;;;;;;;1.88;0.50;;;11.20;99.90;;;;;;4961474;28;20034;-86
2023/03/21 11:36:23;;;;;;;0.57;0.55;;;11.30;99.90;;;;;;4951445;28;20043;-88
2023/03/21 11:39:13;;;;;;;1.45;1.35;;;11.40;99.90;;;;;;4960947;28;20132;-87
2023/03/21 11:41:42;;;;;;;0.38;0.38;;;11.50;99.90;;;;;;4954467;28;20051;-87
2023/03/21 11:44:30;;;;;;;0.65;0.65;;;11.60;99.90;;;;;;4963769;28;20042;-87
2023/03/21 11:46:56;;;;;;;0.40;0.40;;;11.80;99.90;;;;;;4963312;28;20050;-87
2023/03/21 11:49:22;;;;;;;;;;;12.00;99.90;;;;;;4937318;28;20043;-87
2023/03/21 11:52:16;;;;;;;0.70;0.70;;;12.00;99.90;;;;;;4947460;28;20379;-86
2023/03/21 11:55:08;;;;;;;0.73;0.73;;;11.90;99.90;;;;;;4982301;28;20683;-87
2023/03/21 11:57:46;;;;;;;0.43;0.43;;;11.90;99.90;;;;;;4965028;28;20042;-86
2023/03/21 12:00:25;;;;;;;0.77;0.77;;;11.90;99.90;;;;;;4989123;28;20058;-87
2023/03/21 12:03:09;;;;;;;0.30;0.30;;;11.90;99.90;;;;;;4984073;28;20049;-87
2023/03/21 12:05:37;;;;;;;0.80;0.80;;;12.10;99.90;;;;;;4990086;28;20033;-87
2023/03/21 12:08:36;;;;;;;0.80;0.80;;;12.10;99.90;;;;;;4976913;28;20069;-88
2023/03/21 12:11:10;;;;;;;1.70;1.35;;;12.10;99.90;;;;;;4963366;28;20426;-86
2023/03/21 12:14:04;;;;;;;1.75;0.65;;;12.00;99.90;;;;;;4969129;28;20096;-87
2023/03/21 12:16:42;;;;;;;0.60;0.60;;;11.90;99.90;;;;;;4951084;28;20496;-87
2023/03/21 12:19:42;;;;;;;0.85;0.85;;;11.90;99.90;;;;;;4943216;28;20062;-88
2023/03/21 12:22:27;;;;;;;1.88;1.63;;;11.80;99.90;;;;;;4955575;28;20043;-87
2023/03/21 12:24:55;;;;;;;0.28;0.28;;;11.70;99.90;;;;;;4930894;28;20078;-87
2023/03/21 12:27:32;;;;;;;6.22;1.08;;;11.70;99.90;;;;;;4998981;28;20047;-87
2023/03/21 12:30:15;;;;;;;0.40;0.40;;;11.70;99.90;;;;;;4950909;28;20046;-87
2023/03/21 12:33:03;;;;;;;0.30;0.30;;;11.70;99.90;;;;;;4945707;28;20124;-87
2023/03/21 12:35:41;;;;;;;0.40;0.40;;;11.60;99.90;;;;;;4946707;28;20046;-87
2023/03/21 12:38:35;;;;;;;0.85;0.85;;;11.60;99.90;;;;;;4956517;28;20048;-86
2023/03/21 12:41:07;;;;;;;0.60;0.60;;;11.50;99.90;;;;;;4937476;28;20113;-87
2023/03/21 12:44:10;;;;;;;1.40;1.15;;;11.40;99.90;;;;;;4931383;28;20048;-87
2023/03/21 12:46:41;;;;;;;1.65;1.55;;;11.40;99.90;;;;;;4951604;28;20397;-87
2023/03/21 12:49:31;;;;;;;1.10;1.10;;;11.40;99.90;;;;;;4953963;28;20101;-86
2023/03/21 12:52:03;;;;;;;4.47;1.92;;;11.30;99.90;;;;;;4956241;28;20039;-86
2023/03/21 12:54:55;;;;;;;1.67;1.58;;;11.30;99.90;;;;;;4949023;28;20043;-85
2023/03/21 12:57:32;;;;;;;0.95;0.60;;;11.30;99.90;;;;;;4953843;28;20057;-85
2023/03/21 13:00:17;;;;;;;2.13;1.15;;;11.30;99.90;;;;;;4932291;28;20105;-85
2023/03/21 13:02:50;;;;;;;0.90;0.90;;;11.40;99.90;;;;;;4940695;28;20142;-84
2023/03/21 13:05:28;;;;;;;0.65;0.65;;;11.60;99.90;;;;;;4934671;28;20051;-86
2023/03/21 13:07:58;;;;;;;3.70;0.85;;;11.70;99.90;;;;;;4955853;28;20126;-85
2023/03/21 13:10:24;;;;;;;1.23;1.13;;;11.80;99.90;;;;;;4933057;28;20042;-85
2023/03/21 13:12:52;;;;;;;0.85;0.85;;;11.90;99.90;;;;;;4925796;28;20047;-85
2023/03/21 13:15:39;;;;;;;0.52;0.52;;;11.90;99.90;;;;;;4948251;29;20153;-86
2023/03/21 13:18:14;;;;;;;;;;;11.90;99.90;;;;;;4959629;28;20462;-85
2023/03/21 13:20:49;;;;;;;0.45;0.45;;;11.90;99.90;;;;;;4963585;28;19932;-86